sensor_id;sensor_type;location;lat;lon;timestamp;P1;durP1;ratioP1;P2;durP2;ratioP2
51010;SDS011;37038;50.182;8.624;2023-03-11T00:00:02;3.10;;;2.80;;
51010;SDS011;37038;50.182;8.624;2023-03-11T00:02:55;3.95;;;3.53;;
51010;SDS011;37038;50.182;8.624;2023-03-11T00:05:49;5.35;;;3.60;;
51010;SDS011;37038;50.182;8.624;2023-03-11T00:08:39;4.43;;;3.10;;
51010;SDS011;37038;50.182;8.624;2023-03-11T00:11:32;2.95;;;2.65;;
51010;SDS011;37038;50.182;8.624;2023-03-11T00:14:21;3.40;;;2.25;;
51010;SDS011;37038;50.182;8.624;2023-03-11T00:17:08;4.45;;;3.65;;
51010;SDS011;37038;50.182;8.624;2023-03-11T00:19:57;3.08;;;2.88;;
51010;SDS011;37038;50.182;8.624;2023-03-11T00:22:46;3.13;;;2.90;;
51010;SDS011;37038;50.182;8.624;2023-03-11T00:25:37;4.97;;;2.80;;
51010;SDS011;37038;50.182;8.624;2023-03-11T00:28:26;3.80;;;3.13;;
51010;SDS011;37038;50.182;8.624;2023-03-11T00:31:20;4.97;;;3.30;;
51010;SDS011;37038;50.182;8.624;2023-03-11T00:34:16;3.42;;;3.10;;
51010;SDS011;37038;50.182;8.624;2023-03-11T00:37:05;3.28;;;2.97;;
51010;SDS011;37038;50.182;8.624;2023-03-11T00:39:58;3.63;;;3.10;;
51010;SDS011;37038;50.182;8.624;2023-03-11T00:42:53;4.13;;;3.75;;
51010;SDS011;37038;50.182;8.624;2023-03-11T00:45:42;5.93;;;3.33;;
51010;SDS011;37038;50.182;8.624;2023-03-11T00:48:30;5.63;;;3.50;;
51010;SDS011;37038;50.182;8.624;2023-03-11T00:51:19;3.30;;;3.10;;
51010;SDS011;37038;50.182;8.624;2023-03-11T00:54:07;5.57;;;3.55;;
51010;SDS011;37038;50.182;8.624;2023-03-11T00:56:55;7.93;;;3.33;;
51010;SDS011;37038;50.182;8.624;2023-03-11T00:59:43;5.38;;;3.42;;
51010;SDS011;37038;50.182;8.624;2023-03-11T01:02:33;3.40;;;2.85;;
51010;SDS011;37038;50.182;8.624;2023-03-11T01:05:25;4.30;;;3.15;;
51010;SDS011;37038;50.182;8.624;2023-03-11T01:08:16;3.00;;;2.80;;
51010;SDS011;37038;50.182;8.624;2023-03-11T01:11:05;3.45;;;2.90;;
51010;SDS011;37038;50.182;8.624;2023-03-11T01:13:56;5.88;;;3.17;;
51010;SDS011;37038;50.182;8.624;2023-03-11T01:16:44;5.25;;;3.00;;
51010;SDS011;37038;50.182;8.624;2023-03-11T01:19:35;7.38;;;2.67;;
51010;SDS011;37038;50.182;8.624;2023-03-11T01:22:23;2.92;;;2.63;;
51010;SDS011;37038;50.182;8.624;2023-03-11T01:25:13;2.95;;;2.75;;
51010;SDS011;37038;50.182;8.624;2023-03-11T01:28:04;3.58;;;2.88;;
51010;SDS011;37038;50.182;8.624;2023-03-11T01:30:54;6.15;;;3.33;;
51010;SDS011;37038;50.182;8.624;2023-03-11T01:33:42;7.50;;;3.30;;
51010;SDS011;37038;50.182;8.624;2023-03-11T01:36:30;3.63;;;3.15;;
51010;SDS011;37038;50.182;8.624;2023-03-11T01:39:19;4.72;;;2.78;;
51010;SDS011;37038;50.182;8.624;2023-03-11T01:42:07;3.33;;;3.15;;
51010;SDS011;37038;50.182;8.624;2023-03-11T01:44:55;3.47;;;2.40;;
51010;SDS011;37038;50.182;8.624;2023-03-11T01:47:43;3.88;;;3.20;;
51010;SDS011;37038;50.182;8.624;2023-03-11T01:50:35;6.60;;;4.70;;
51010;SDS011;37038;50.182;8.624;2023-03-11T01:53:29;4.90;;;3.10;;
51010;SDS011;37038;50.182;8.624;2023-03-11T01:56:17;3.47;;;2.50;;
51010;SDS011;37038;50.182;8.624;2023-03-11T01:59:07;6.28;;;2.97;;
51010;SDS011;37038;50.182;8.624;2023-03-11T02:05:01;4.40;;;3.85;;
51010;SDS011;37038;50.182;8.624;2023-03-11T02:07:50;4.97;;;3.40;;
51010;SDS011;37038;50.182;8.624;2023-03-11T02:10:41;8.10;;;3.38;;
51010;SDS011;37038;50.182;8.624;2023-03-11T02:13:31;4.88;;;2.80;;
51010;SDS011;37038;50.182;8.624;2023-03-11T02:16:21;3.00;;;2.65;;
51010;SDS011;37038;50.182;8.624;2023-03-11T02:19:17;5.80;;;3.30;;
51010;SDS011;37038;50.182;8.624;2023-03-11T02:22:41;3.17;;;2.85;;
51010;SDS011;37038;50.182;8.624;2023-03-11T02:28:30;3.45;;;3.10;;
51010;SDS011;37038;50.182;8.624;2023-03-11T02:31:21;7.20;;;3.10;;
51010;SDS011;37038;50.182;8.624;2023-03-11T02:34:12;5.70;;;3.65;;
51010;SDS011;37038;50.182;8.624;2023-03-11T02:37:19;7.82;;;3.10;;
51010;SDS011;37038;50.182;8.624;2023-03-11T02:43:10;6.57;;;3.17;;
51010;SDS011;37038;50.182;8.624;2023-03-11T02:46:06;4.55;;;3.53;;
51010;SDS011;37038;50.182;8.624;2023-03-11T02:48:56;7.47;;;3.92;;
51010;SDS011;37038;50.182;8.624;2023-03-11T02:51:46;4.43;;;3.58;;
51010;SDS011;37038;50.182;8.624;2023-03-11T02:54:33;6.22;;;3.63;;
51010;SDS011;37038;50.182;8.624;2023-03-11T02:57:21;7.95;;;3.55;;
51010;SDS011;37038;50.182;8.624;2023-03-11T03:00:09;3.42;;;2.65;;
51010;SDS011;37038;50.182;8.624;2023-03-11T03:03:02;3.10;;;2.85;;
51010;SDS011;37038;50.182;8.624;2023-03-11T03:05:50;5.72;;;3.33;;
51010;SDS011;37038;50.182;8.624;2023-03-11T03:08:38;5.13;;;4.03;;
51010;SDS011;37038;50.182;8.624;2023-03-11T03:11:27;6.93;;;3.78;;
51010;SDS011;37038;50.182;8.624;2023-03-11T03:14:15;10.48;;;3.90;;
51010;SDS011;37038;50.182;8.624;2023-03-11T03:17:03;7.35;;;3.40;;
51010;SDS011;37038;50.182;8.624;2023-03-11T03:19:51;9.48;;;3.33;;
51010;SDS011;37038;50.182;8.624;2023-03-11T03:22:42;7.07;;;3.95;;
51010;SDS011;37038;50.182;8.624;2023-03-11T03:25:30;6.07;;;2.92;;
51010;SDS011;37038;50.182;8.624;2023-03-11T03:28:18;3.38;;;2.88;;
51010;SDS011;37038;50.182;8.624;2023-03-11T03:31:07;4.38;;;3.30;;
51010;SDS011;37038;50.182;8.624;2023-03-11T03:33:56;6.93;;;3.17;;
51010;SDS011;37038;50.182;8.624;2023-03-11T03:36:44;6.47;;;3.58;;
51010;SDS011;37038;50.182;8.624;2023-03-11T03:39:33;7.00;;;3.80;;
51010;SDS011;37038;50.182;8.624;2023-03-11T03:42:23;10.20;;;3.80;;
51010;SDS011;37038;50.182;8.624;2023-03-11T03:45:12;10.90;;;4.15;;
51010;SDS011;37038;50.182;8.624;2023-03-11T03:48:00;5.45;;;3.83;;
51010;SDS011;37038;50.182;8.624;2023-03-11T03:50:48;5.18;;;3.50;;
51010;SDS011;37038;50.182;8.624;2023-03-11T03:53:36;4.38;;;3.10;;
51010;SDS011;37038;50.182;8.624;2023-03-11T03:56:25;15.15;;;4.22;;
51010;SDS011;37038;50.182;8.624;2023-03-11T03:59:13;5.95;;;3.97;;
51010;SDS011;37038;50.182;8.624;2023-03-11T04:02:01;4.38;;;3.88;;
51010;SDS011;37038;50.182;8.624;2023-03-11T04:04:49;4.80;;;4.40;;
51010;SDS011;37038;50.182;8.624;2023-03-11T04:07:38;5.15;;;4.65;;
51010;SDS011;37038;50.182;8.624;2023-03-11T04:10:26;8.80;;;4.78;;
51010;SDS011;37038;50.182;8.624;2023-03-11T04:13:14;7.15;;;4.50;;
51010;SDS011;37038;50.182;8.624;2023-03-11T04:16:03;9.05;;;4.45;;
51010;SDS011;37038;50.182;8.624;2023-03-11T04:18:52;9.40;;;4.95;;
51010;SDS011;37038;50.182;8.624;2023-03-11T04:21:40;5.53;;;4.50;;
51010;SDS011;37038;50.182;8.624;2023-03-11T04:24:29;9.98;;;4.95;;
51010;SDS011;37038;50.182;8.624;2023-03-11T04:27:17;7.35;;;5.50;;
51010;SDS011;37038;50.182;8.624;2023-03-11T04:30:05;5.57;;;4.65;;
51010;SDS011;37038;50.182;8.624;2023-03-11T04:32:54;12.40;;;5.32;;
51010;SDS011;37038;50.182;8.624;2023-03-11T04:35:42;6.60;;;5.57;;
51010;SDS011;37038;50.182;8.624;2023-03-11T04:38:30;7.13;;;5.63;;
51010;SDS011;37038;50.182;8.624;2023-03-11T04:41:18;6.93;;;4.90;;
51010;SDS011;37038;50.182;8.624;2023-03-11T04:44:06;8.07;;;4.75;;
51010;SDS011;37038;50.182;8.624;2023-03-11T04:46:54;7.18;;;4.70;;
51010;SDS011;37038;50.182;8.624;2023-03-11T04:49:42;7.28;;;4.45;;
51010;SDS011;37038;50.182;8.624;2023-03-11T04:52:30;7.93;;;4.68;;
51010;SDS011;37038;50.182;8.624;2023-03-11T04:55:18;5.03;;;4.30;;
51010;SDS011;37038;50.182;8.624;2023-03-11T04:58:06;9.68;;;4.30;;
51010;SDS011;37038;50.182;8.624;2023-03-11T05:00:54;8.05;;;4.53;;
51010;SDS011;37038;50.182;8.624;2023-03-11T05:03:42;7.80;;;4.72;;
51010;SDS011;37038;50.182;8.624;2023-03-11T05:06:31;7.38;;;4.35;;
51010;SDS011;37038;50.182;8.624;2023-03-11T05:09:19;8.80;;;4.97;;
51010;SDS011;37038;50.182;8.624;2023-03-11T05:12:08;5.57;;;4.55;;
51010;SDS011;37038;50.182;8.624;2023-03-11T05:14:58;14.45;;;5.18;;
51010;SDS011;37038;50.182;8.624;2023-03-11T05:17:46;12.35;;;4.90;;
51010;SDS011;37038;50.182;8.624;2023-03-11T05:20:34;10.45;;;6.07;;
51010;SDS011;37038;50.182;8.624;2023-03-11T05:23:22;10.30;;;5.82;;
51010;SDS011;37038;50.182;8.624;2023-03-11T05:26:10;11.77;;;6.70;;
51010;SDS011;37038;50.182;8.624;2023-03-11T05:28:58;5.95;;;5.00;;
51010;SDS011;37038;50.182;8.624;2023-03-11T05:31:46;8.93;;;6.50;;
51010;SDS011;37038;50.182;8.624;2023-03-11T05:34:35;7.43;;;6.30;;
51010;SDS011;37038;50.182;8.624;2023-03-11T05:37:23;11.88;;;6.95;;
51010;SDS011;37038;50.182;8.624;2023-03-11T05:40:11;13.18;;;6.82;;
51010;SDS011;37038;50.182;8.624;2023-03-11T05:42:59;8.38;;;6.55;;
51010;SDS011;37038;50.182;8.624;2023-03-11T05:45:47;12.93;;;7.30;;
51010;SDS011;37038;50.182;8.624;2023-03-11T05:48:35;14.80;;;7.57;;
51010;SDS011;37038;50.182;8.624;2023-03-11T05:51:23;11.60;;;7.50;;
51010;SDS011;37038;50.182;8.624;2023-03-11T05:54:11;10.00;;;5.97;;
51010;SDS011;37038;50.182;8.624;2023-03-11T05:57:01;16.13;;;6.20;;
51010;SDS011;37038;50.182;8.624;2023-03-11T05:59:49;7.45;;;5.03;;
51010;SDS011;37038;50.182;8.624;2023-03-11T06:02:38;12.20;;;5.90;;
51010;SDS011;37038;50.182;8.624;2023-03-11T06:05:27;16.25;;;5.07;;
51010;SDS011;37038;50.182;8.624;2023-03-11T06:08:15;10.13;;;4.68;;
51010;SDS011;37038;50.182;8.624;2023-03-11T06:11:08;9.57;;;5.65;;
51010;SDS011;37038;50.182;8.624;2023-03-11T06:13:57;9.97;;;5.30;;
51010;SDS011;37038;50.182;8.624;2023-03-11T06:16:45;8.98;;;4.93;;
51010;SDS011;37038;50.182;8.624;2023-03-11T06:19:34;10.10;;;4.70;;
51010;SDS011;37038;50.182;8.624;2023-03-11T06:22:23;6.60;;;4.18;;
51010;SDS011;37038;50.182;8.624;2023-03-11T06:25:11;8.90;;;4.82;;
51010;SDS011;37038;50.182;8.624;2023-03-11T06:27:59;10.70;;;4.95;;
51010;SDS011;37038;50.182;8.624;2023-03-11T06:30:47;7.63;;;4.35;;
51010;SDS011;37038;50.182;8.624;2023-03-11T06:33:35;5.60;;;4.70;;
51010;SDS011;37038;50.182;8.624;2023-03-11T06:36:24;10.98;;;4.60;;
51010;SDS011;37038;50.182;8.624;2023-03-11T06:39:12;8.52;;;4.85;;
51010;SDS011;37038;50.182;8.624;2023-03-11T06:42:01;10.05;;;5.68;;
51010;SDS011;37038;50.182;8.624;2023-03-11T06:44:49;15.05;;;6.18;;
51010;SDS011;37038;50.182;8.624;2023-03-11T06:47:38;12.25;;;5.30;;
51010;SDS011;37038;50.182;8.624;2023-03-11T06:50:27;16.33;;;4.80;;
51010;SDS011;37038;50.182;8.624;2023-03-11T06:53:15;13.52;;;5.82;;
51010;SDS011;37038;50.182;8.624;2023-03-11T06:58:57;13.77;;;4.68;;
51010;SDS011;37038;50.182;8.624;2023-03-11T07:01:45;10.88;;;4.57;;
51010;SDS011;37038;50.182;8.624;2023-03-11T07:04:33;11.45;;;5.05;;
51010;SDS011;37038;50.182;8.624;2023-03-11T07:07:24;10.85;;;5.10;;
51010;SDS011;37038;50.182;8.624;2023-03-11T07:10:12;11.15;;;5.00;;
51010;SDS011;37038;50.182;8.624;2023-03-11T07:13:00;19.58;;;5.00;;
51010;SDS011;37038;50.182;8.624;2023-03-11T07:15:58;9.90;;;4.15;;
51010;SDS011;37038;50.182;8.624;2023-03-11T07:18:49;10.63;;;5.03;;
51010;SDS011;37038;50.182;8.624;2023-03-11T07:21:38;16.92;;;6.47;;
51010;SDS011;37038;50.182;8.624;2023-03-11T07:24:27;13.45;;;4.50;;
51010;SDS011;37038;50.182;8.624;2023-03-11T07:27:15;7.25;;;3.95;;
51010;SDS011;37038;50.182;8.624;2023-03-11T07:30:03;9.27;;;4.63;;
51010;SDS011;37038;50.182;8.624;2023-03-11T07:32:52;11.07;;;4.68;;
51010;SDS011;37038;50.182;8.624;2023-03-11T07:35:41;7.65;;;4.80;;
51010;SDS011;37038;50.182;8.624;2023-03-11T07:38:30;7.80;;;4.70;;
51010;SDS011;37038;50.182;8.624;2023-03-11T07:41:19;8.10;;;4.30;;
51010;SDS011;37038;50.182;8.624;2023-03-11T07:44:09;11.65;;;5.20;;
51010;SDS011;37038;50.182;8.624;2023-03-11T07:47:03;9.73;;;4.63;;
51010;SDS011;37038;50.182;8.624;2023-03-11T07:49:54;13.05;;;4.47;;
51010;SDS011;37038;50.182;8.624;2023-03-11T07:52:43;12.57;;;4.88;;
51010;SDS011;37038;50.182;8.624;2023-03-11T07:55:32;7.55;;;4.03;;
51010;SDS011;37038;50.182;8.624;2023-03-11T07:58:23;5.82;;;4.03;;
51010;SDS011;37038;50.182;8.624;2023-03-11T08:01:12;15.20;;;4.72;;
51010;SDS011;37038;50.182;8.624;2023-03-11T08:04:12;7.10;;;4.07;;
51010;SDS011;37038;50.182;8.624;2023-03-11T08:07:03;9.95;;;4.60;;
51010;SDS011;37038;50.182;8.624;2023-03-11T08:09:51;7.88;;;3.75;;
51010;SDS011;37038;50.182;8.624;2023-03-11T08:12:40;14.20;;;3.95;;
51010;SDS011;37038;50.182;8.624;2023-03-11T08:15:28;10.98;;;4.05;;
51010;SDS011;37038;50.182;8.624;2023-03-11T08:18:17;6.43;;;3.90;;
51010;SDS011;37038;50.182;8.624;2023-03-11T08:21:05;12.25;;;4.60;;
51010;SDS011;37038;50.182;8.624;2023-03-11T08:23:59;9.02;;;3.65;;
51010;SDS011;37038;50.182;8.624;2023-03-11T08:26:53;13.45;;;4.22;;
51010;SDS011;37038;50.182;8.624;2023-03-11T08:29:47;10.73;;;3.72;;
51010;SDS011;37038;50.182;8.624;2023-03-11T08:32:35;13.82;;;4.05;;
51010;SDS011;37038;50.182;8.624;2023-03-11T08:35:23;11.10;;;3.45;;
51010;SDS011;37038;50.182;8.624;2023-03-11T08:38:13;10.93;;;3.30;;
51010;SDS011;37038;50.182;8.624;2023-03-11T08:41:01;8.48;;;3.78;;
51010;SDS011;37038;50.182;8.624;2023-03-11T08:43:52;13.15;;;3.97;;
51010;SDS011;37038;50.182;8.624;2023-03-11T08:46:41;6.45;;;3.22;;
51010;SDS011;37038;50.182;8.624;2023-03-11T08:49:30;9.52;;;3.08;;
51010;SDS011;37038;50.182;8.624;2023-03-11T08:52:19;5.68;;;2.97;;
51010;SDS011;37038;50.182;8.624;2023-03-11T08:55:09;12.05;;;3.40;;
51010;SDS011;37038;50.182;8.624;2023-03-11T08:58:03;7.03;;;3.15;;
51010;SDS011;37038;50.182;8.624;2023-03-11T09:00:52;15.43;;;2.83;;
51010;SDS011;37038;50.182;8.624;2023-03-11T09:03:43;10.63;;;3.42;;
51010;SDS011;37038;50.182;8.624;2023-03-11T09:06:35;8.77;;;2.78;;
51010;SDS011;37038;50.182;8.624;2023-03-11T09:09:30;4.95;;;3.20;;
51010;SDS011;37038;50.182;8.624;2023-03-11T09:12:19;7.25;;;3.28;;
51010;SDS011;37038;50.182;8.624;2023-03-11T09:15:13;5.93;;;3.17;;
51010;SDS011;37038;50.182;8.624;2023-03-11T09:18:02;9.43;;;3.03;;
51010;SDS011;37038;50.182;8.624;2023-03-11T09:20:53;6.85;;;3.20;;
51010;SDS011;37038;50.182;8.624;2023-03-11T09:23:49;8.80;;;3.60;;
51010;SDS011;37038;50.182;8.624;2023-03-11T09:26:40;6.78;;;2.90;;
51010;SDS011;37038;50.182;8.624;2023-03-11T09:29:31;4.82;;;2.80;;
51010;SDS011;37038;50.182;8.624;2023-03-11T09:32:22;13.15;;;3.00;;
51010;SDS011;37038;50.182;8.624;2023-03-11T09:35:10;9.80;;;3.75;;
51010;SDS011;37038;50.182;8.624;2023-03-11T09:37:59;10.27;;;3.10;;
51010;SDS011;37038;50.182;8.624;2023-03-11T09:50:49;5.28;;;2.50;;
51010;SDS011;37038;50.182;8.624;2023-03-11T09:53:46;7.95;;;2.22;;
51010;SDS011;37038;50.182;8.624;2023-03-11T09:56:43;6.45;;;2.20;;
51010;SDS011;37038;50.182;8.624;2023-03-11T09:59:34;6.90;;;2.58;;
51010;SDS011;37038;50.182;8.624;2023-03-11T10:02:25;7.25;;;2.45;;
51010;SDS011;37038;50.182;8.624;2023-03-11T10:05:15;5.60;;;2.55;;
51010;SDS011;37038;50.182;8.624;2023-03-11T10:18:28;3.53;;;1.80;;
51010;SDS011;37038;50.182;8.624;2023-03-11T10:21:33;4.10;;;2.38;;
51010;SDS011;37038;50.182;8.624;2023-03-11T10:27:47;3.67;;;2.35;;
51010;SDS011;37038;50.182;8.624;2023-03-11T10:30:42;6.90;;;2.38;;
51010;SDS011;37038;50.182;8.624;2023-03-11T10:33:43;4.97;;;2.08;;
51010;SDS011;37038;50.182;8.624;2023-03-11T10:36:49;5.47;;;2.10;;
51010;SDS011;37038;50.182;8.624;2023-03-11T10:39:50;8.77;;;2.70;;
51010;SDS011;37038;50.182;8.624;2023-03-11T10:42:48;9.18;;;3.78;;
51010;SDS011;37038;50.182;8.624;2023-03-11T10:45:44;6.78;;;3.20;;
51010;SDS011;37038;50.182;8.624;2023-03-11T10:48:42;6.15;;;2.50;;
51010;SDS011;37038;50.182;8.624;2023-03-11T10:51:35;6.97;;;2.92;;
51010;SDS011;37038;50.182;8.624;2023-03-11T10:57:40;5.80;;;2.38;;
51010;SDS011;37038;50.182;8.624;2023-03-11T11:00:37;4.63;;;2.40;;
51010;SDS011;37038;50.182;8.624;2023-03-11T11:03:42;4.90;;;2.10;;
51010;SDS011;37038;50.182;8.624;2023-03-11T11:06:41;5.03;;;2.10;;
51010;SDS011;37038;50.182;8.624;2023-03-11T11:09:31;10.27;;;2.38;;
51010;SDS011;37038;50.182;8.624;2023-03-11T11:12:19;6.55;;;2.10;;
51010;SDS011;37038;50.182;8.624;2023-03-11T11:15:12;5.32;;;1.98;;
51010;SDS011;37038;50.182;8.624;2023-03-11T11:18:22;6.97;;;2.50;;
51010;SDS011;37038;50.182;8.624;2023-03-11T11:21:36;6.50;;;2.28;;
51010;SDS011;37038;50.182;8.624;2023-03-11T11:24:32;4.78;;;2.30;;
51010;SDS011;37038;50.182;8.624;2023-03-11T11:27:25;7.53;;;2.33;;
51010;SDS011;37038;50.182;8.624;2023-03-11T11:30:15;6.30;;;2.03;;
51010;SDS011;37038;50.182;8.624;2023-03-11T11:33:40;4.45;;;2.40;;
51010;SDS011;37038;50.182;8.624;2023-03-11T11:36:45;7.85;;;2.40;;
51010;SDS011;37038;50.182;8.624;2023-03-11T11:39:46;5.53;;;2.25;;
51010;SDS011;37038;50.182;8.624;2023-03-11T11:42:42;4.03;;;2.10;;
51010;SDS011;37038;50.182;8.624;2023-03-11T11:46:03;2.85;;;2.10;;
51010;SDS011;37038;50.182;8.624;2023-03-11T11:49:10;5.20;;;2.47;;
51010;SDS011;37038;50.182;8.624;2023-03-11T11:52:24;3.83;;;2.05;;
51010;SDS011;37038;50.182;8.624;2023-03-11T11:55:24;4.78;;;2.33;;
51010;SDS011;37038;50.182;8.624;2023-03-11T11:58:15;6.75;;;2.50;;
51010;SDS011;37038;50.182;8.624;2023-03-11T12:01:14;8.20;;;2.60;;
51010;SDS011;37038;50.182;8.624;2023-03-11T12:04:32;4.18;;;2.35;;
51010;SDS011;37038;50.182;8.624;2023-03-11T12:08:20;5.00;;;2.00;;
51010;SDS011;37038;50.182;8.624;2023-03-11T12:11:00;4.53;;;3.47;;
51010;SDS011;37038;50.182;8.624;2023-03-11T12:17:26;3.67;;;2.78;;
51010;SDS011;37038;50.182;8.624;2023-03-11T12:20:21;7.60;;;2.40;;
51010;SDS011;37038;50.182;8.624;2023-03-11T12:26:57;4.00;;;2.25;;
51010;SDS011;37038;50.182;8.624;2023-03-11T12:29:56;5.50;;;2.55;;
51010;SDS011;37038;50.182;8.624;2023-03-11T12:32:50;6.50;;;2.08;;
51010;SDS011;37038;50.182;8.624;2023-03-11T12:35:52;4.25;;;2.20;;
51010;SDS011;37038;50.182;8.624;2023-03-11T12:38:45;14.35;;;10.27;;
51010;SDS011;37038;50.182;8.624;2023-03-11T12:44:29;3.13;;;2.80;;
51010;SDS011;37038;50.182;8.624;2023-03-11T12:47:21;3.70;;;2.70;;
51010;SDS011;37038;50.182;8.624;2023-03-11T12:53:46;2.90;;;2.00;;
51010;SDS011;37038;50.182;8.624;2023-03-11T12:56:39;4.35;;;2.30;;
51010;SDS011;37038;50.182;8.624;2023-03-11T13:03:10;2.85;;;2.13;;
51010;SDS011;37038;50.182;8.624;2023-03-11T13:06:30;6.30;;;2.55;;
51010;SDS011;37038;50.182;8.624;2023-03-11T13:09:30;5.72;;;2.78;;
51010;SDS011;37038;50.182;8.624;2023-03-11T13:15:35;5.32;;;1.92;;
51010;SDS011;37038;50.182;8.624;2023-03-11T13:18:25;3.00;;;2.00;;
51010;SDS011;37038;50.182;8.624;2023-03-11T13:27:25;5.95;;;2.00;;
51010;SDS011;37038;50.182;8.624;2023-03-11T13:30:27;3.83;;;1.98;;
51010;SDS011;37038;50.182;8.624;2023-03-11T13:33:32;4.90;;;1.95;;
51010;SDS011;37038;50.182;8.624;2023-03-11T13:43:19;5.45;;;2.20;;
51010;SDS011;37038;50.182;8.624;2023-03-11T13:46:12;4.30;;;2.63;;
51010;SDS011;37038;50.182;8.624;2023-03-11T13:52:46;2.67;;;1.83;;
51010;SDS011;37038;50.182;8.624;2023-03-11T13:55:40;3.60;;;2.28;;
51010;SDS011;37038;50.182;8.624;2023-03-11T13:58:32;3.20;;;2.85;;
51010;SDS011;37038;50.182;8.624;2023-03-11T14:01:23;6.95;;;2.65;;
51010;SDS011;37038;50.182;8.624;2023-03-11T14:04:17;4.28;;;1.88;;
51010;SDS011;37038;50.182;8.624;2023-03-11T14:07:24;5.40;;;2.42;;
51010;SDS011;37038;50.182;8.624;2023-03-11T14:10:24;4.45;;;2.45;;
51010;SDS011;37038;50.182;8.624;2023-03-11T14:13:17;4.60;;;2.33;;
51010;SDS011;37038;50.182;8.624;2023-03-11T14:16:19;5.55;;;2.30;;
51010;SDS011;37038;50.182;8.624;2023-03-11T14:19:20;4.45;;;2.17;;
51010;SDS011;37038;50.182;8.624;2023-03-11T14:22:15;6.45;;;2.35;;
51010;SDS011;37038;50.182;8.624;2023-03-11T14:25:05;4.13;;;2.53;;
51010;SDS011;37038;50.182;8.624;2023-03-11T14:28:05;8.55;;;2.20;;
51010;SDS011;37038;50.182;8.624;2023-03-11T14:30:54;2.40;;;1.40;;
51010;SDS011;37038;50.182;8.624;2023-03-11T14:33:52;5.13;;;2.42;;
51010;SDS011;37038;50.182;8.624;2023-03-11T14:36:45;4.05;;;2.20;;
51010;SDS011;37038;50.182;8.624;2023-03-11T14:39:38;4.72;;;1.90;;
51010;SDS011;37038;50.182;8.624;2023-03-11T14:42:39;6.47;;;2.08;;
51010;SDS011;37038;50.182;8.624;2023-03-11T14:45:33;3.45;;;2.00;;
51010;SDS011;37038;50.182;8.624;2023-03-11T14:48:29;5.50;;;2.70;;
51010;SDS011;37038;50.182;8.624;2023-03-11T14:51:38;4.93;;;2.08;;
51010;SDS011;37038;50.182;8.624;2023-03-11T14:54:28;8.27;;;2.83;;
51010;SDS011;37038;50.182;8.624;2023-03-11T14:57:34;7.20;;;2.38;;
51010;SDS011;37038;50.182;8.624;2023-03-11T15:00:51;4.07;;;1.95;;
51010;SDS011;37038;50.182;8.624;2023-03-11T15:04:10;4.70;;;2.13;;
51010;SDS011;37038;50.182;8.624;2023-03-11T15:07:13;3.25;;;2.00;;
51010;SDS011;37038;50.182;8.624;2023-03-11T15:10:07;6.47;;;2.17;;
51010;SDS011;37038;50.182;8.624;2023-03-11T15:13:12;3.65;;;2.15;;
51010;SDS011;37038;50.182;8.624;2023-03-11T15:16:04;2.97;;;1.85;;
51010;SDS011;37038;50.182;8.624;2023-03-11T15:22:29;5.63;;;2.00;;
51010;SDS011;37038;50.182;8.624;2023-03-11T15:25:27;6.30;;;2.30;;
51010;SDS011;37038;50.182;8.624;2023-03-11T15:31:15;4.53;;;1.90;;
51010;SDS011;37038;50.182;8.624;2023-03-11T15:34:07;5.65;;;2.15;;
51010;SDS011;37038;50.182;8.624;2023-03-11T15:37:16;3.78;;;1.90;;
51010;SDS011;37038;50.182;8.624;2023-03-11T15:40:28;4.05;;;1.77;;
51010;SDS011;37038;50.182;8.624;2023-03-11T15:43:32;5.47;;;2.30;;
51010;SDS011;37038;50.182;8.624;2023-03-11T15:46:35;3.30;;;1.77;;
51010;SDS011;37038;50.182;8.624;2023-03-11T15:49:23;6.95;;;2.13;;
51010;SDS011;37038;50.182;8.624;2023-03-11T15:52:15;3.40;;;2.10;;
51010;SDS011;37038;50.182;8.624;2023-03-11T15:55:05;6.30;;;2.40;;
51010;SDS011;37038;50.182;8.624;2023-03-11T15:57:57;5.15;;;2.15;;
51010;SDS011;37038;50.182;8.624;2023-03-11T16:00:51;3.60;;;1.80;;
51010;SDS011;37038;50.182;8.624;2023-03-11T16:06:32;4.40;;;2.22;;
51010;SDS011;37038;50.182;8.624;2023-03-11T16:09:20;4.82;;;2.00;;
51010;SDS011;37038;50.182;8.624;2023-03-11T16:12:18;3.92;;;1.92;;
51010;SDS011;37038;50.182;8.624;2023-03-11T16:15:20;6.15;;;2.20;;
51010;SDS011;37038;50.182;8.624;2023-03-11T16:18:15;4.95;;;2.05;;
51010;SDS011;37038;50.182;8.624;2023-03-11T16:21:03;5.65;;;2.10;;
51010;SDS011;37038;50.182;8.624;2023-03-11T16:23:57;3.38;;;1.90;;
51010;SDS011;37038;50.182;8.624;2023-03-11T16:26:46;5.50;;;2.00;;
51010;SDS011;37038;50.182;8.624;2023-03-11T16:29:41;7.15;;;2.17;;
51010;SDS011;37038;50.182;8.624;2023-03-11T16:32:35;6.03;;;3.20;;
51010;SDS011;37038;50.182;8.624;2023-03-11T16:35:36;4.22;;;3.08;;
51010;SDS011;37038;50.182;8.624;2023-03-11T16:38:27;6.35;;;2.47;;
51010;SDS011;37038;50.182;8.624;2023-03-11T16:41:20;3.03;;;2.30;;
51010;SDS011;37038;50.182;8.624;2023-03-11T16:44:09;6.07;;;4.13;;
51010;SDS011;37038;50.182;8.624;2023-03-11T16:46:57;7.32;;;2.38;;
51010;SDS011;37038;50.182;8.624;2023-03-11T16:49:45;4.75;;;2.33;;
51010;SDS011;37038;50.182;8.624;2023-03-11T16:52:39;4.55;;;2.25;;
51010;SDS011;37038;50.182;8.624;2023-03-11T16:55:27;7.55;;;3.75;;
51010;SDS011;37038;50.182;8.624;2023-03-11T16:58:18;7.57;;;3.47;;
51010;SDS011;37038;50.182;8.624;2023-03-11T17:01:09;5.13;;;2.28;;
51010;SDS011;37038;50.182;8.624;2023-03-11T17:03:58;8.52;;;2.60;;
51010;SDS011;37038;50.182;8.624;2023-03-11T17:06:49;10.70;;;3.10;;
51010;SDS011;37038;50.182;8.624;2023-03-11T17:09:37;8.48;;;2.58;;
51010;SDS011;37038;50.182;8.624;2023-03-11T17:12:25;6.25;;;3.22;;
51010;SDS011;37038;50.182;8.624;2023-03-11T17:15:17;2.85;;;2.53;;
51010;SDS011;37038;50.182;8.624;2023-03-11T17:18:05;5.78;;;2.40;;
51010;SDS011;37038;50.182;8.624;2023-03-11T17:20:53;4.32;;;2.35;;
51010;SDS011;37038;50.182;8.624;2023-03-11T17:23:41;4.60;;;2.30;;
51010;SDS011;37038;50.182;8.624;2023-03-11T17:26:30;6.93;;;3.15;;
51010;SDS011;37038;50.182;8.624;2023-03-11T17:29:22;4.60;;;2.70;;
51010;SDS011;37038;50.182;8.624;2023-03-11T17:32:13;6.10;;;3.13;;
51010;SDS011;37038;50.182;8.624;2023-03-11T17:35:04;4.30;;;3.08;;
51010;SDS011;37038;50.182;8.624;2023-03-11T17:37:52;5.80;;;3.22;;
51010;SDS011;37038;50.182;8.624;2023-03-11T17:40:40;5.13;;;2.70;;
51010;SDS011;37038;50.182;8.624;2023-03-11T17:43:29;8.95;;;2.70;;
51010;SDS011;37038;50.182;8.624;2023-03-11T17:46:17;5.35;;;3.20;;
51010;SDS011;37038;50.182;8.624;2023-03-11T17:49:13;8.48;;;2.55;;
51010;SDS011;37038;50.182;8.624;2023-03-11T17:52:01;7.55;;;3.70;;
51010;SDS011;37038;50.182;8.624;2023-03-11T17:54:51;4.63;;;3.25;;
51010;SDS011;37038;50.182;8.624;2023-03-11T17:57:39;4.78;;;3.08;;
51010;SDS011;37038;50.182;8.624;2023-03-11T18:00:32;6.80;;;3.35;;
51010;SDS011;37038;50.182;8.624;2023-03-11T18:03:20;7.38;;;3.85;;
51010;SDS011;37038;50.182;8.624;2023-03-11T18:06:08;7.85;;;3.58;;
51010;SDS011;37038;50.182;8.624;2023-03-11T18:08:59;7.40;;;3.40;;
51010;SDS011;37038;50.182;8.624;2023-03-11T18:11:47;11.23;;;2.85;;
51010;SDS011;37038;50.182;8.624;2023-03-11T18:14:38;6.72;;;4.63;;
51010;SDS011;37038;50.182;8.624;2023-03-11T18:17:26;5.68;;;3.65;;
51010;SDS011;37038;50.182;8.624;2023-03-11T18:20:15;6.75;;;3.42;;
51010;SDS011;37038;50.182;8.624;2023-03-11T18:23:03;6.97;;;4.30;;
51010;SDS011;37038;50.182;8.624;2023-03-11T18:25:53;8.30;;;3.53;;
51010;SDS011;37038;50.182;8.624;2023-03-11T18:28:41;6.28;;;3.80;;
51010;SDS011;37038;50.182;8.624;2023-03-11T18:31:30;7.40;;;4.00;;
51010;SDS011;37038;50.182;8.624;2023-03-11T18:34:26;9.93;;;7.90;;
51010;SDS011;37038;50.182;8.624;2023-03-11T18:38:02;10.07;;;7.43;;
51010;SDS011;37038;50.182;8.624;2023-03-11T18:40:56;13.13;;;7.88;;